M/T Arcadia — SY7849 — position and weather

sailwx.info

Track history (hours):
 
Tides and Currents Weather Stations Pressure Air Temp Water Temp Dewpoint Dewpoint Depression Visibility Wind Speed Wind Dir Waves Ship Positions

M/T Arcadia

Last reported at 2016-Jun-28 14:33 UTC. Time now 2016-Jun-29 14:38 UTC.
Position N 37°55' E 023°05'.

Length 76 m; draft 3.7 m.

Type: Tanker. MMSI: 240560000.

Date/timePositionNaut miles runAvg speedWind from/ knotsBaromVisibWave heightAir tempDewpointWater temp
2016-Jun-28 14:33N 37°55' E 023°05'4 4.1
2016-Jun-28 13:33N 37°52' E 023°09'7 7.5
2016-Jun-28 12:34N 37°46' E 023°14'8 7.7
2016-Jun-28 11:33N 37°39' E 023°19'8 7.7
2016-Jun-28 10:33N 37°36' E 023°28'8 7.9
2016-Jun-28 09:33N 37°29' E 023°33'8 7.4
2016-Jun-28 08:33N 37°22' E 023°36'7 7.1
2016-Jun-28 07:33N 37°15' E 023°38'7 7.3
2016-Jun-28 06:32N 37°08' E 023°40'16 8.0
2016-Jun-28 04:33N 36°52' E 023°45'24 7.7
2016-Jun-28 01:23N 36°28' E 023°51'8 7.5
2016-Jun-28 00:18N 36°20' E 023°53'6 7.6
2016-Jun-27 23:29N 36°14' E 023°54'7 7.7
2016-Jun-27 22:33N 36°07' E 023°56'8 7.6
2016-Jun-27 21:33N 35°59' E 023°58'60 1.5
2016-Jun-26 04:20N 36°47' E 023°12'17 7.3
2016-Jun-26 02:05N 37°04' E 023°11'4 7.7
2016-Jun-26 01:31N 37°08' E 023°12'7 7.0
2016-Jun-26 00:33N 37°13' E 023°18'7 7.2
2016-Jun-25 23:33N 37°16' E 023°26'7 7.4
2016-Jun-25 22:32N 37°20' E 023°35'6 6.5
2016-Jun-25 21:33N 37°26' E 023°36'7 6.7
2016-Jun-25 20:33N 37°32' E 023°32'7 7.1
2016-Jun-25 19:33N 37°37' E 023°26'6 6.4
2016-Jun-25 18:33N 37°40' E 023°19'7 6.9
2016-Jun-25 17:33N 37°46' E 023°14'8 7.7
2016-Jun-25 16:33N 37°52' E 023°08'4 3.6
2016-Jun-25 15:32N 37°55' E 023°05'0 0.0
2016-Jun-25 14:32N 37°55' E 023°05'0 0.0
2016-Jun-25 13:26N 37°55' E 023°05'0 0.0
2016-Jun-25 12:11N 37°55' E 023°05'0 0.0
2016-Jun-25 11:32N 37°55' E 023°05'0 0.0
2016-Jun-25 10:32N 37°55' E 023°05'0 0.0
2016-Jun-25 09:29N 37°55' E 023°05'0 0.0
2016-Jun-25 08:32N 37°55' E 023°05'0 0.0
2016-Jun-25 07:29N 37°55' E 023°05'0 0.0
2016-Jun-25 06:32N 37°55' E 023°05'0 0.0
2016-Jun-25 04:32N 37°55' E 023°05'0 0.0
2016-Jun-25 03:32N 37°55' E 023°05'0 0.0
2016-Jun-25 02:11N 37°55' E 023°05'0 0.0
2016-Jun-25 01:32N 37°55' E 023°05'0 0.0
2016-Jun-25 00:32N 37°55' E 023°05'0 0.0
2016-Jun-24 22:08N 37°55' E 023°05'0 0.0
2016-Jun-24 21:26N 37°55' E 023°05'0 0.0
2016-Jun-24 20:32N 37°55' E 023°05'0 0.0
2016-Jun-24 19:32N 37°55' E 023°05'0 0.0
2016-Jun-24 18:32N 37°55' E 023°05'0 0.0
2016-Jun-24 17:29N 37°55' E 023°05'0 0.0
2016-Jun-24 16:32N 37°55' E 023°05'0 0.1
2016-Jun-24 15:32N 37°55' E 023°05'5 5.2
2016-Jun-24 14:33N 37°51' E 023°10'7 7.0
2016-Jun-24 13:33N 37°46' E 023°15'7 7.0
2016-Jun-24 12:33N 37°40' E 023°20'7 7.1
2016-Jun-24 11:33N 37°36' E 023°28'7 7.3
2016-Jun-24 10:33N 37°30' E 023°33'6 6.3
2016-Jun-24 09:33N 37°24' E 023°31'7 6.7
2016-Jun-24 08:33N 37°21' E 023°24'7 6.9
2016-Jun-24 07:30N 37°17' E 023°16'7 7.0
2016-Jun-24 06:32N 37°10' E 023°13'15 6.6
2016-Jun-24 04:18N 36°56' E 023°12'6 6.3
2016-Jun-24 03:26N 36°50' E 023°11'  
2016-Jun-21 19:22N 37°02' E 023°41'6 7.0
2016-Jun-21 18:33N 37°07' E 023°39'7 7.2
2016-Jun-21 17:34N 37°14' E 023°37'7 7.3
2016-Jun-21 16:33N 37°21' E 023°36'7 7.3
2016-Jun-21 15:33N 37°28' E 023°33'6 6.3
2016-Jun-21 14:34N 37°34' E 023°30'7 6.7
2016-Jun-21 13:33N 37°39' E 023°24'6 6.3
2016-Jun-21 12:32N 37°42' E 023°17'7 7.1
2016-Jun-21 11:33N 37°48' E 023°12'7 7.3
2016-Jun-21 10:33N 37°54' E 023°07'1 0.7
2016-Jun-21 08:30N 37°55' E 023°05'0 0.0
2016-Jun-21 07:09N 37°55' E 023°05'0 0.0
2016-Jun-21 04:33N 37°55' E 023°05'0 0.0
2016-Jun-21 03:30N 37°55' E 023°05'0 0.0
2016-Jun-21 02:30N 37°55' E 023°05'0 0.0
2016-Jun-21 01:33N 37°55' E 023°05'0 0.0
2016-Jun-21 00:33N 37°55' E 023°05'0 0.0
2016-Jun-20 22:33N 37°55' E 023°05'0 0.0
2016-Jun-20 21:30N 37°55' E 023°05'0 0.0
2016-Jun-20 20:33N 37°55' E 023°05'1 0.9
2016-Jun-20 19:33N 37°54' E 023°06'5 4.9
2016-Jun-20 18:33N 37°51' E 023°10'8 8.1
2016-Jun-20 17:33N 37°44' E 023°16'7 7.5
2016-Jun-20 16:33N 37°39' E 023°23'8 8.3
2016-Jun-20 15:33N 37°33' E 023°30'8 8.1
2016-Jun-20 14:34N 37°26' E 023°35'8 7.7
2016-Jun-20 13:33N 37°19' E 023°38'8 7.6
2016-Jun-20 12:33N 37°11' E 023°40'8 7.7
2016-Jun-20 11:33N 37°04' E 023°42'8 7.9
2016-Jun-20 10:33N 36°56' E 023°43'8 8.2
2016-Jun-20 09:32N 36°48' E 023°46'21 0.7
2016-Jun-19 04:20N 36°27' E 023°50'5 7.0
2016-Jun-19 03:33N 36°33' E 023°49'15 6.7
2016-Jun-19 01:20N 36°47' E 023°46'5 6.8
2016-Jun-19 00:32N 36°53' E 023°44'14 7.1
2016-Jun-18 22:33N 37°06' E 023°41'8 7.5
2016-Jun-18 21:33N 37°14' E 023°40'8 7.7
2016-Jun-18 20:33N 37°21' E 023°38'7 7.5
2016-Jun-18 19:33N 37°29' E 023°35'7 7.2
2016-Jun-18 18:33N 37°34' E 023°30'7 7.1
2016-Jun-18 17:33N 37°40' E 023°24'6 5.9
2016-Jun-18 16:33N 37°42' E 023°17'7 7.2
2016-Jun-18 15:33N 37°49' E 023°12'  
Track history (hours):
 
Tides and Currents Weather Stations Pressure Air Temp Water Temp Dewpoint Dewpoint Depression Visibility Wind Speed Wind Dir Waves Ship Positions

M/T Arcadia

Last reported at 2016-Jun-28 14:33 UTC. Time now 2016-Jun-29 14:38 UTC.
Position N 37°55' E 023°05'.

Length 76 m; draft 3.7 m.

Type: Tanker. MMSI: 240560000.

Date/timePositionNaut miles runAvg speedWind from/ knotsBaromVisibWave heightAir tempDewpointWater temp
2016-Jun-28 14:33N 37°55' E 023°05'4 4.1
2016-Jun-28 13:33N 37°52' E 023°09'7 7.5
2016-Jun-28 12:34N 37°46' E 023°14'8 7.7
2016-Jun-28 11:33N 37°39' E 023°19'8 7.7
2016-Jun-28 10:33N 37°36' E 023°28'8 7.9
2016-Jun-28 09:33N 37°29' E 023°33'8 7.4
2016-Jun-28 08:33N 37°22' E 023°36'7 7.1
2016-Jun-28 07:33N 37°15' E 023°38'7 7.3
2016-Jun-28 06:32N 37°08' E 023°40'16 8.0
2016-Jun-28 04:33N 36°52' E 023°45'24 7.7
2016-Jun-28 01:23N 36°28' E 023°51'8 7.5
2016-Jun-28 00:18N 36°20' E 023°53'6 7.6
2016-Jun-27 23:29N 36°14' E 023°54'7 7.7
2016-Jun-27 22:33N 36°07' E 023°56'8 7.6
2016-Jun-27 21:33N 35°59' E 023°58'60 1.5
2016-Jun-26 04:20N 36°47' E 023°12'17 7.3
2016-Jun-26 02:05N 37°04' E 023°11'4 7.7
2016-Jun-26 01:31N 37°08' E 023°12'7 7.0
2016-Jun-26 00:33N 37°13' E 023°18'7 7.2
2016-Jun-25 23:33N 37°16' E 023°26'7 7.4
2016-Jun-25 22:32N 37°20' E 023°35'6 6.5
2016-Jun-25 21:33N 37°26' E 023°36'7 6.7
2016-Jun-25 20:33N 37°32' E 023°32'7 7.1
2016-Jun-25 19:33N 37°37' E 023°26'6 6.4
2016-Jun-25 18:33N 37°40' E 023°19'7 6.9
2016-Jun-25 17:33N 37°46' E 023°14'8 7.7
2016-Jun-25 16:33N 37°52' E 023°08'4 3.6
2016-Jun-25 15:32N 37°55' E 023°05'0 0.0
2016-Jun-25 14:32N 37°55' E 023°05'0 0.0
2016-Jun-25 13:26N 37°55' E 023°05'0 0.0
2016-Jun-25 12:11N 37°55' E 023°05'0 0.0
2016-Jun-25 11:32N 37°55' E 023°05'0 0.0
2016-Jun-25 10:32N 37°55' E 023°05'0 0.0
2016-Jun-25 09:29N 37°55' E 023°05'0 0.0
2016-Jun-25 08:32N 37°55' E 023°05'0 0.0
2016-Jun-25 07:29N 37°55' E 023°05'0 0.0
2016-Jun-25 06:32N 37°55' E 023°05'0 0.0
2016-Jun-25 04:32N 37°55' E 023°05'0 0.0
2016-Jun-25 03:32N 37°55' E 023°05'0 0.0
2016-Jun-25 02:11N 37°55' E 023°05'0 0.0
2016-Jun-25 01:32N 37°55' E 023°05'0 0.0
2016-Jun-25 00:32N 37°55' E 023°05'0 0.0
2016-Jun-24 22:08N 37°55' E 023°05'0 0.0
2016-Jun-24 21:26N 37°55' E 023°05'0 0.0
2016-Jun-24 20:32N 37°55' E 023°05'0 0.0
2016-Jun-24 19:32N 37°55' E 023°05'0 0.0
2016-Jun-24 18:32N 37°55' E 023°05'0 0.0
2016-Jun-24 17:29N 37°55' E 023°05'0 0.0
2016-Jun-24 16:32N 37°55' E 023°05'0 0.1
2016-Jun-24 15:32N 37°55' E 023°05'5 5.2
2016-Jun-24 14:33N 37°51' E 023°10'7 7.0
2016-Jun-24 13:33N 37°46' E 023°15'7 7.0
2016-Jun-24 12:33N 37°40' E 023°20'7 7.1
2016-Jun-24 11:33N 37°36' E 023°28'7 7.3
2016-Jun-24 10:33N 37°30' E 023°33'6 6.3
2016-Jun-24 09:33N 37°24' E 023°31'7 6.7
2016-Jun-24 08:33N 37°21' E 023°24'7 6.9
2016-Jun-24 07:30N 37°17' E 023°16'7 7.0
2016-Jun-24 06:32N 37°10' E 023°13'15 6.6
2016-Jun-24 04:18N 36°56' E 023°12'6 6.3
2016-Jun-24 03:26N 36°50' E 023°11'  
2016-Jun-21 19:22N 37°02' E 023°41'6 7.0
2016-Jun-21 18:33N 37°07' E 023°39'7 7.2
2016-Jun-21 17:34N 37°14' E 023°37'7 7.3
2016-Jun-21 16:33N 37°21' E 023°36'7 7.3
2016-Jun-21 15:33N 37°28' E 023°33'6 6.3
2016-Jun-21 14:34N 37°34' E 023°30'7 6.7
2016-Jun-21 13:33N 37°39' E 023°24'6 6.3
2016-Jun-21 12:32N 37°42' E 023°17'7 7.1
2016-Jun-21 11:33N 37°48' E 023°12'7 7.3
2016-Jun-21 10:33N 37°54' E 023°07'1 0.7
2016-Jun-21 08:30N 37°55' E 023°05'0 0.0
2016-Jun-21 07:09N 37°55' E 023°05'0 0.0
2016-Jun-21 04:33N 37°55' E 023°05'0 0.0
2016-Jun-21 03:30N 37°55' E 023°05'0 0.0
2016-Jun-21 02:30N 37°55' E 023°05'0 0.0
2016-Jun-21 01:33N 37°55' E 023°05'0 0.0
2016-Jun-21 00:33N 37°55' E 023°05'0 0.0
2016-Jun-20 22:33N 37°55' E 023°05'0 0.0
2016-Jun-20 21:30N 37°55' E 023°05'0 0.0
2016-Jun-20 20:33N 37°55' E 023°05'1 0.9
2016-Jun-20 19:33N 37°54' E 023°06'5 4.9
2016-Jun-20 18:33N 37°51' E 023°10'8 8.1
2016-Jun-20 17:33N 37°44' E 023°16'7 7.5
2016-Jun-20 16:33N 37°39' E 023°23'8 8.3
2016-Jun-20 15:33N 37°33' E 023°30'8 8.1
2016-Jun-20 14:34N 37°26' E 023°35'8 7.7
2016-Jun-20 13:33N 37°19' E 023°38'8 7.6
2016-Jun-20 12:33N 37°11' E 023°40'8 7.7
2016-Jun-20 11:33N 37°04' E 023°42'8 7.9
2016-Jun-20 10:33N 36°56' E 023°43'8 8.2
2016-Jun-20 09:32N 36°48' E 023°46'21 0.7
2016-Jun-19 04:20N 36°27' E 023°50'5 7.0
2016-Jun-19 03:33N 36°33' E 023°49'15 6.7
2016-Jun-19 01:20N 36°47' E 023°46'5 6.8
2016-Jun-19 00:32N 36°53' E 023°44'14 7.1
2016-Jun-18 22:33N 37°06' E 023°41'8 7.5
2016-Jun-18 21:33N 37°14' E 023°40'8 7.7
2016-Jun-18 20:33N 37°21' E 023°38'7 7.5
2016-Jun-18 19:33N 37°29' E 023°35'7 7.2
2016-Jun-18 18:33N 37°34' E 023°30'7 7.1
2016-Jun-18 17:33N 37°40' E 023°24'6 5.9
2016-Jun-18 16:33N 37°42' E 023°17'7 7.2
2016-Jun-18 15:33N 37°49' E 023°12'  

Dump ship's entire track history